sensor_id;sensor_type;location;lat;lon;timestamp;P1;durP1;ratioP1;P2;durP2;ratioP2
82244;SDS011;71849;50.096;14.458;2023-11-19T00:02:06;10.13;;;5.70;;
82244;SDS011;71849;50.096;14.458;2023-11-19T00:04:33;9.70;;;5.10;;
82244;SDS011;71849;50.096;14.458;2023-11-19T00:07:01;9.90;;;5.32;;
82244;SDS011;71849;50.096;14.458;2023-11-19T00:09:29;10.55;;;5.70;;
82244;SDS011;71849;50.096;14.458;2023-11-19T00:11:55;11.32;;;5.70;;
82244;SDS011;71849;50.096;14.458;2023-11-19T00:14:20;11.63;;;5.40;;
82244;SDS011;71849;50.096;14.458;2023-11-19T00:16:46;10.55;;;4.93;;
82244;SDS011;71849;50.096;14.458;2023-11-19T00:19:11;12.77;;;5.88;;
82244;SDS011;71849;50.096;14.458;2023-11-19T00:21:37;10.57;;;5.47;;
82244;SDS011;71849;50.096;14.458;2023-11-19T00:24:02;10.93;;;5.82;;
82244;SDS011;71849;50.096;14.458;2023-11-19T00:26:29;13.10;;;5.43;;
82244;SDS011;71849;50.096;14.458;2023-11-19T00:28:55;9.30;;;4.95;;
82244;SDS011;71849;50.096;14.458;2023-11-19T00:31:21;10.88;;;5.82;;
82244;SDS011;71849;50.096;14.458;2023-11-19T00:33:46;10.20;;;5.38;;
82244;SDS011;71849;50.096;14.458;2023-11-19T00:36:12;11.90;;;6.13;;
82244;SDS011;71849;50.096;14.458;2023-11-19T00:38:38;12.75;;;5.90;;
82244;SDS011;71849;50.096;14.458;2023-11-19T00:41:03;10.38;;;5.35;;
82244;SDS011;71849;50.096;14.458;2023-11-19T00:43:29;12.02;;;6.43;;
82244;SDS011;71849;50.096;14.458;2023-11-19T00:45:54;12.25;;;5.82;;
82244;SDS011;71849;50.096;14.458;2023-11-19T00:48:20;12.95;;;6.18;;
82244;SDS011;71849;50.096;14.458;2023-11-19T00:50:45;10.90;;;5.43;;
82244;SDS011;71849;50.096;14.458;2023-11-19T00:53:11;11.65;;;5.60;;
82244;SDS011;71849;50.096;14.458;2023-11-19T00:55:37;9.85;;;5.22;;
82244;SDS011;71849;50.096;14.458;2023-11-19T00:58:02;10.48;;;4.95;;
82244;SDS011;71849;50.096;14.458;2023-11-19T01:00:28;12.57;;;5.93;;
82244;SDS011;71849;50.096;14.458;2023-11-19T01:02:53;10.38;;;5.22;;
82244;SDS011;71849;50.096;14.458;2023-11-19T01:05:20;11.13;;;5.38;;
82244;SDS011;71849;50.096;14.458;2023-11-19T01:07:47;11.05;;;5.40;;
82244;SDS011;71849;50.096;14.458;2023-11-19T01:10:13;12.50;;;5.53;;
82244;SDS011;71849;50.096;14.458;2023-11-19T01:12:38;11.80;;;6.00;;
82244;SDS011;71849;50.096;14.458;2023-11-19T01:15:04;11.07;;;5.90;;
82244;SDS011;71849;50.096;14.458;2023-11-19T01:17:30;11.43;;;5.80;;
82244;SDS011;71849;50.096;14.458;2023-11-19T01:19:57;11.13;;;5.88;;
82244;SDS011;71849;50.096;14.458;2023-11-19T01:22:22;10.32;;;5.53;;
82244;SDS011;71849;50.096;14.458;2023-11-19T01:24:48;12.02;;;5.68;;
82244;SDS011;71849;50.096;14.458;2023-11-19T01:27:14;10.05;;;5.20;;
82244;SDS011;71849;50.096;14.458;2023-11-19T01:29:39;11.02;;;5.90;;
82244;SDS011;71849;50.096;14.458;2023-11-19T01:32:05;9.95;;;5.05;;
82244;SDS011;71849;50.096;14.458;2023-11-19T01:34:31;12.13;;;5.72;;
82244;SDS011;71849;50.096;14.458;2023-11-19T01:36:57;9.13;;;4.53;;
82244;SDS011;71849;50.096;14.458;2023-11-19T01:39:22;10.18;;;5.13;;
82244;SDS011;71849;50.096;14.458;2023-11-19T01:41:48;9.32;;;4.72;;
82244;SDS011;71849;50.096;14.458;2023-11-19T01:44:13;9.45;;;5.30;;
82244;SDS011;71849;50.096;14.458;2023-11-19T01:46:40;9.30;;;4.55;;
82244;SDS011;71849;50.096;14.458;2023-11-19T01:49:07;9.45;;;4.95;;
82244;SDS011;71849;50.096;14.458;2023-11-19T01:51:33;10.23;;;4.70;;
82244;SDS011;71849;50.096;14.458;2023-11-19T01:54:00;8.93;;;4.32;;
82244;SDS011;71849;50.096;14.458;2023-11-19T01:56:26;10.18;;;4.90;;
82244;SDS011;71849;50.096;14.458;2023-11-19T01:58:53;9.60;;;4.75;;
82244;SDS011;71849;50.096;14.458;2023-11-19T02:01:20;9.95;;;4.90;;
82244;SDS011;71849;50.096;14.458;2023-11-19T02:03:45;8.45;;;4.78;;
82244;SDS011;71849;50.096;14.458;2023-11-19T02:06:12;9.68;;;4.72;;
82244;SDS011;71849;50.096;14.458;2023-11-19T02:08:38;9.65;;;4.82;;
82244;SDS011;71849;50.096;14.458;2023-11-19T02:11:04;9.07;;;4.70;;
82244;SDS011;71849;50.096;14.458;2023-11-19T02:13:32;9.18;;;4.38;;
82244;SDS011;71849;50.096;14.458;2023-11-19T02:15:58;9.15;;;4.70;;
82244;SDS011;71849;50.096;14.458;2023-11-19T02:18:25;7.70;;;4.20;;
82244;SDS011;71849;50.096;14.458;2023-11-19T02:20:53;9.70;;;4.85;;
82244;SDS011;71849;50.096;14.458;2023-11-19T02:23:19;9.10;;;3.67;;
82244;SDS011;71849;50.096;14.458;2023-11-19T02:28:23;9.65;;;4.45;;
82244;SDS011;71849;50.096;14.458;2023-11-19T02:30:48;9.70;;;4.13;;
82244;SDS011;71849;50.096;14.458;2023-11-19T02:33:14;10.18;;;5.10;;
82244;SDS011;71849;50.096;14.458;2023-11-19T02:35:40;9.70;;;5.45;;
82244;SDS011;71849;50.096;14.458;2023-11-19T02:38:06;8.48;;;4.40;;
82244;SDS011;71849;50.096;14.458;2023-11-19T02:40:32;10.60;;;4.85;;
82244;SDS011;71849;50.096;14.458;2023-11-19T02:42:58;11.27;;;4.70;;
82244;SDS011;71849;50.096;14.458;2023-11-19T02:45:24;9.15;;;5.28;;
82244;SDS011;71849;50.096;14.458;2023-11-19T02:47:50;9.48;;;4.75;;
82244;SDS011;71849;50.096;14.458;2023-11-19T02:50:17;9.02;;;4.90;;
82244;SDS011;71849;50.096;14.458;2023-11-19T02:52:51;10.90;;;5.57;;
82244;SDS011;71849;50.096;14.458;2023-11-19T02:55:18;9.63;;;4.60;;
82244;SDS011;71849;50.096;14.458;2023-11-19T02:57:44;9.25;;;5.07;;
82244;SDS011;71849;50.096;14.458;2023-11-19T03:00:19;11.93;;;5.63;;
82244;SDS011;71849;50.096;14.458;2023-11-19T03:03:00;10.85;;;4.95;;
82244;SDS011;71849;50.096;14.458;2023-11-19T03:05:35;10.77;;;5.35;;
82244;SDS011;71849;50.096;14.458;2023-11-19T03:08:00;9.38;;;5.18;;
82244;SDS011;71849;50.096;14.458;2023-11-19T03:10:26;9.05;;;4.70;;
82244;SDS011;71849;50.096;14.458;2023-11-19T03:12:51;10.75;;;5.47;;
82244;SDS011;71849;50.096;14.458;2023-11-19T03:15:17;9.90;;;5.50;;
82244;SDS011;71849;50.096;14.458;2023-11-19T03:17:42;8.18;;;4.85;;
82244;SDS011;71849;50.096;14.458;2023-11-19T03:20:08;9.20;;;5.20;;
82244;SDS011;71849;50.096;14.458;2023-11-19T03:22:39;9.45;;;4.80;;
82244;SDS011;71849;50.096;14.458;2023-11-19T03:25:06;9.88;;;5.22;;
82244;SDS011;71849;50.096;14.458;2023-11-19T03:27:33;10.30;;;5.40;;
82244;SDS011;71849;50.096;14.458;2023-11-19T03:30:01;8.65;;;5.35;;
82244;SDS011;71849;50.096;14.458;2023-11-19T03:32:26;11.98;;;5.15;;
82244;SDS011;71849;50.096;14.458;2023-11-19T03:34:52;11.25;;;5.10;;
82244;SDS011;71849;50.096;14.458;2023-11-19T03:37:17;7.68;;;4.55;;
82244;SDS011;71849;50.096;14.458;2023-11-19T03:39:43;10.35;;;4.80;;
82244;SDS011;71849;50.096;14.458;2023-11-19T03:42:08;9.48;;;4.63;;
82244;SDS011;71849;50.096;14.458;2023-11-19T03:44:34;9.50;;;4.60;;
82244;SDS011;71849;50.096;14.458;2023-11-19T03:46:59;9.07;;;4.50;;
82244;SDS011;71849;50.096;14.458;2023-11-19T03:49:25;8.45;;;4.38;;
82244;SDS011;71849;50.096;14.458;2023-11-19T03:51:50;9.60;;;4.93;;
82244;SDS011;71849;50.096;14.458;2023-11-19T03:54:15;9.98;;;5.22;;
82244;SDS011;71849;50.096;14.458;2023-11-19T03:56:41;9.73;;;4.25;;
82244;SDS011;71849;50.096;14.458;2023-11-19T03:59:06;8.38;;;4.63;;
82244;SDS011;71849;50.096;14.458;2023-11-19T04:01:33;8.93;;;4.05;;
82244;SDS011;71849;50.096;14.458;2023-11-19T04:03:58;11.25;;;4.53;;
82244;SDS011;71849;50.096;14.458;2023-11-19T04:06:24;8.43;;;4.43;;
82244;SDS011;71849;50.096;14.458;2023-11-19T04:08:49;10.55;;;4.85;;
82244;SDS011;71849;50.096;14.458;2023-11-19T04:11:15;8.75;;;4.55;;
82244;SDS011;71849;50.096;14.458;2023-11-19T04:13:40;7.70;;;4.20;;
82244;SDS011;71849;50.096;14.458;2023-11-19T04:16:06;9.38;;;4.72;;
82244;SDS011;71849;50.096;14.458;2023-11-19T04:18:32;8.80;;;4.05;;
82244;SDS011;71849;50.096;14.458;2023-11-19T04:20:57;9.98;;;5.10;;
82244;SDS011;71849;50.096;14.458;2023-11-19T04:23:23;9.25;;;4.57;;
82244;SDS011;71849;50.096;14.458;2023-11-19T04:25:50;8.25;;;4.35;;
82244;SDS011;71849;50.096;14.458;2023-11-19T04:28:15;8.27;;;4.15;;
82244;SDS011;71849;50.096;14.458;2023-11-19T04:30:41;9.00;;;4.70;;
82244;SDS011;71849;50.096;14.458;2023-11-19T04:33:06;9.27;;;4.53;;
82244;SDS011;71849;50.096;14.458;2023-11-19T04:35:31;6.85;;;3.90;;
82244;SDS011;71849;50.096;14.458;2023-11-19T04:37:57;8.02;;;4.18;;
82244;SDS011;71849;50.096;14.458;2023-11-19T04:40:22;8.20;;;4.55;;
82244;SDS011;71849;50.096;14.458;2023-11-19T04:42:48;9.52;;;4.13;;
82244;SDS011;71849;50.096;14.458;2023-11-19T04:45:14;10.63;;;4.80;;
82244;SDS011;71849;50.096;14.458;2023-11-19T04:47:41;9.90;;;4.82;;
82244;SDS011;71849;50.096;14.458;2023-11-19T04:50:07;7.65;;;3.75;;
82244;SDS011;71849;50.096;14.458;2023-11-19T04:52:37;8.63;;;4.20;;
82244;SDS011;71849;50.096;14.458;2023-11-19T04:55:04;9.07;;;4.30;;
82244;SDS011;71849;50.096;14.458;2023-11-19T04:57:29;9.52;;;4.28;;
82244;SDS011;71849;50.096;14.458;2023-11-19T04:59:57;7.95;;;4.40;;
82244;SDS011;71849;50.096;14.458;2023-11-19T05:02:23;9.20;;;4.22;;
82244;SDS011;71849;50.096;14.458;2023-11-19T05:04:48;8.98;;;4.50;;
82244;SDS011;71849;50.096;14.458;2023-11-19T05:07:14;7.78;;;4.22;;
82244;SDS011;71849;50.096;14.458;2023-11-19T05:09:39;7.30;;;3.83;;
82244;SDS011;71849;50.096;14.458;2023-11-19T05:12:05;8.38;;;4.00;;
82244;SDS011;71849;50.096;14.458;2023-11-19T05:14:33;7.10;;;3.72;;
82244;SDS011;71849;50.096;14.458;2023-11-19T05:16:59;6.82;;;3.80;;
82244;SDS011;71849;50.096;14.458;2023-11-19T05:19:24;8.25;;;4.32;;
82244;SDS011;71849;50.096;14.458;2023-11-19T05:21:50;9.30;;;3.88;;
82244;SDS011;71849;50.096;14.458;2023-11-19T05:24:17;8.15;;;4.03;;
82244;SDS011;71849;50.096;14.458;2023-11-19T05:26:43;8.18;;;4.40;;
82244;SDS011;71849;50.096;14.458;2023-11-19T05:29:08;7.90;;;3.38;;
82244;SDS011;71849;50.096;14.458;2023-11-19T05:31:34;8.23;;;4.10;;
82244;SDS011;71849;50.096;14.458;2023-11-19T05:33:59;8.60;;;4.30;;
82244;SDS011;71849;50.096;14.458;2023-11-19T05:36:24;7.93;;;4.63;;
82244;SDS011;71849;50.096;14.458;2023-11-19T05:38:50;8.85;;;3.83;;
82244;SDS011;71849;50.096;14.458;2023-11-19T05:41:15;7.68;;;3.70;;
82244;SDS011;71849;50.096;14.458;2023-11-19T05:43:41;7.65;;;4.00;;
82244;SDS011;71849;50.096;14.458;2023-11-19T05:46:06;6.88;;;3.70;;
82244;SDS011;71849;50.096;14.458;2023-11-19T05:48:32;7.93;;;4.00;;
82244;SDS011;71849;50.096;14.458;2023-11-19T05:50:58;7.78;;;4.10;;
82244;SDS011;71849;50.096;14.458;2023-11-19T05:53:23;8.68;;;4.20;;
82244;SDS011;71849;50.096;14.458;2023-11-19T05:55:49;8.35;;;4.00;;
82244;SDS011;71849;50.096;14.458;2023-11-19T06:00:47;10.40;;;4.40;;
82244;SDS011;71849;50.096;14.458;2023-11-19T06:03:12;9.48;;;4.35;;
82244;SDS011;71849;50.096;14.458;2023-11-19T06:05:38;8.25;;;4.70;;
82244;SDS011;71849;50.096;14.458;2023-11-19T06:08:03;8.95;;;4.35;;
82244;SDS011;71849;50.096;14.458;2023-11-19T06:10:29;8.55;;;4.18;;
82244;SDS011;71849;50.096;14.458;2023-11-19T06:12:59;8.80;;;4.47;;
82244;SDS011;71849;50.096;14.458;2023-11-19T06:15:27;8.38;;;4.20;;
82244;SDS011;71849;50.096;14.458;2023-11-19T06:17:53;10.18;;;4.90;;
82244;SDS011;71849;50.096;14.458;2023-11-19T06:20:19;10.07;;;4.82;;
82244;SDS011;71849;50.096;14.458;2023-11-19T06:22:45;8.70;;;4.32;;
82244;SDS011;71849;50.096;14.458;2023-11-19T06:25:11;8.70;;;4.60;;
82244;SDS011;71849;50.096;14.458;2023-11-19T06:27:39;9.80;;;4.43;;
82244;SDS011;71849;50.096;14.458;2023-11-19T06:30:05;9.60;;;4.72;;
82244;SDS011;71849;50.096;14.458;2023-11-19T06:32:31;9.88;;;4.22;;
82244;SDS011;71849;50.096;14.458;2023-11-19T06:34:57;7.82;;;4.13;;
82244;SDS011;71849;50.096;14.458;2023-11-19T06:37:23;9.95;;;4.75;;
82244;SDS011;71849;50.096;14.458;2023-11-19T06:39:48;8.85;;;4.53;;
82244;SDS011;71849;50.096;14.458;2023-11-19T06:42:14;8.32;;;4.30;;
82244;SDS011;71849;50.096;14.458;2023-11-19T06:44:39;11.07;;;5.15;;
82244;SDS011;71849;50.096;14.458;2023-11-19T06:47:04;8.82;;;4.30;;
82244;SDS011;71849;50.096;14.458;2023-11-19T06:49:48;8.10;;;3.92;;
82244;SDS011;71849;50.096;14.458;2023-11-19T06:52:14;8.40;;;3.90;;
82244;SDS011;71849;50.096;14.458;2023-11-19T06:54:41;9.30;;;3.92;;
82244;SDS011;71849;50.096;14.458;2023-11-19T06:57:06;8.63;;;3.72;;
82244;SDS011;71849;50.096;14.458;2023-11-19T06:59:32;8.38;;;3.65;;
82244;SDS011;71849;50.096;14.458;2023-11-19T07:01:58;7.07;;;3.65;;
82244;SDS011;71849;50.096;14.458;2023-11-19T07:04:24;7.45;;;3.90;;
82244;SDS011;71849;50.096;14.458;2023-11-19T07:06:49;8.30;;;4.25;;
82244;SDS011;71849;50.096;14.458;2023-11-19T07:09:17;7.38;;;3.67;;
82244;SDS011;71849;50.096;14.458;2023-11-19T07:11:43;8.13;;;3.97;;
82244;SDS011;71849;50.096;14.458;2023-11-19T07:14:10;8.15;;;3.97;;
82244;SDS011;71849;50.096;14.458;2023-11-19T07:16:36;7.95;;;3.60;;
82244;SDS011;71849;50.096;14.458;2023-11-19T07:19:05;7.53;;;3.22;;
82244;SDS011;71849;50.096;14.458;2023-11-19T07:21:31;8.13;;;3.78;;
82244;SDS011;71849;50.096;14.458;2023-11-19T07:23:58;7.78;;;3.53;;
82244;SDS011;71849;50.096;14.458;2023-11-19T07:26:24;7.15;;;3.22;;
82244;SDS011;71849;50.096;14.458;2023-11-19T07:28:49;6.28;;;3.20;;
82244;SDS011;71849;50.096;14.458;2023-11-19T07:31:15;7.68;;;4.20;;
82244;SDS011;71849;50.096;14.458;2023-11-19T07:33:41;7.85;;;3.88;;
82244;SDS011;71849;50.096;14.458;2023-11-19T07:36:10;8.27;;;3.95;;
82244;SDS011;71849;50.096;14.458;2023-11-19T07:38:36;6.50;;;3.35;;
82244;SDS011;71849;50.096;14.458;2023-11-19T07:41:02;7.70;;;3.20;;
82244;SDS011;71849;50.096;14.458;2023-11-19T07:43:27;7.03;;;3.53;;
82244;SDS011;71849;50.096;14.458;2023-11-19T07:45:53;7.13;;;3.35;;
82244;SDS011;71849;50.096;14.458;2023-11-19T07:48:18;6.93;;;3.38;;
82244;SDS011;71849;50.096;14.458;2023-11-19T07:50:57;7.65;;;3.42;;
82244;SDS011;71849;50.096;14.458;2023-11-19T07:53:22;7.05;;;3.60;;
82244;SDS011;71849;50.096;14.458;2023-11-19T07:55:48;7.82;;;3.45;;
82244;SDS011;71849;50.096;14.458;2023-11-19T07:58:13;6.55;;;3.30;;
82244;SDS011;71849;50.096;14.458;2023-11-19T08:00:39;6.85;;;3.28;;
82244;SDS011;71849;50.096;14.458;2023-11-19T08:03:05;9.20;;;4.22;;
82244;SDS011;71849;50.096;14.458;2023-11-19T08:05:31;9.38;;;4.18;;
82244;SDS011;71849;50.096;14.458;2023-11-19T08:07:59;7.97;;;3.70;;
82244;SDS011;71849;50.096;14.458;2023-11-19T08:10:24;7.35;;;3.88;;
82244;SDS011;71849;50.096;14.458;2023-11-19T08:12:50;7.63;;;3.72;;
82244;SDS011;71849;50.096;14.458;2023-11-19T08:15:15;7.72;;;4.13;;
82244;SDS011;71849;50.096;14.458;2023-11-19T08:17:41;9.18;;;4.15;;
82244;SDS011;71849;50.096;14.458;2023-11-19T08:20:07;6.90;;;3.58;;
82244;SDS011;71849;50.096;14.458;2023-11-19T08:22:35;6.63;;;3.58;;
82244;SDS011;71849;50.096;14.458;2023-11-19T08:25:02;7.03;;;3.35;;
82244;SDS011;71849;50.096;14.458;2023-11-19T08:27:31;7.82;;;4.25;;
82244;SDS011;71849;50.096;14.458;2023-11-19T08:29:57;7.45;;;3.95;;
82244;SDS011;71849;50.096;14.458;2023-11-19T08:32:22;8.68;;;4.07;;
82244;SDS011;71849;50.096;14.458;2023-11-19T08:34:49;8.05;;;3.80;;
82244;SDS011;71849;50.096;14.458;2023-11-19T08:37:15;8.63;;;4.28;;
82244;SDS011;71849;50.096;14.458;2023-11-19T08:39:43;7.07;;;3.85;;
82244;SDS011;71849;50.096;14.458;2023-11-19T08:42:08;8.02;;;4.13;;
82244;SDS011;71849;50.096;14.458;2023-11-19T08:44:33;7.88;;;3.60;;
82244;SDS011;71849;50.096;14.458;2023-11-19T08:46:59;7.65;;;4.30;;
82244;SDS011;71849;50.096;14.458;2023-11-19T08:49:24;7.38;;;3.47;;
82244;SDS011;71849;50.096;14.458;2023-11-19T08:51:50;9.52;;;4.18;;
82244;SDS011;71849;50.096;14.458;2023-11-19T08:54:16;8.63;;;4.07;;
82244;SDS011;71849;50.096;14.458;2023-11-19T08:56:41;8.80;;;3.97;;
82244;SDS011;71849;50.096;14.458;2023-11-19T08:59:07;7.20;;;3.72;;
82244;SDS011;71849;50.096;14.458;2023-11-19T09:01:33;8.18;;;4.00;;
82244;SDS011;71849;50.096;14.458;2023-11-19T09:03:59;8.23;;;3.92;;
82244;SDS011;71849;50.096;14.458;2023-11-19T09:06:24;7.95;;;4.22;;
82244;SDS011;71849;50.096;14.458;2023-11-19T09:08:50;9.55;;;4.25;;
82244;SDS011;71849;50.096;14.458;2023-11-19T09:11:15;10.05;;;4.30;;
82244;SDS011;71849;50.096;14.458;2023-11-19T09:13:44;7.07;;;3.80;;
82244;SDS011;71849;50.096;14.458;2023-11-19T09:16:11;8.43;;;3.90;;
82244;SDS011;71849;50.096;14.458;2023-11-19T09:18:37;7.75;;;3.65;;
82244;SDS011;71849;50.096;14.458;2023-11-19T09:21:02;6.97;;;3.67;;
82244;SDS011;71849;50.096;14.458;2023-11-19T09:23:28;11.70;;;6.53;;
82244;SDS011;71849;50.096;14.458;2023-11-19T09:25:57;10.25;;;5.18;;
82244;SDS011;71849;50.096;14.458;2023-11-19T09:28:23;7.03;;;4.15;;
82244;SDS011;71849;50.096;14.458;2023-11-19T09:30:48;7.82;;;3.92;;
82244;SDS011;71849;50.096;14.458;2023-11-19T09:33:14;8.07;;;4.20;;
82244;SDS011;71849;50.096;14.458;2023-11-19T09:35:39;8.52;;;4.10;;
82244;SDS011;71849;50.096;14.458;2023-11-19T09:38:05;8.50;;;4.72;;
82244;SDS011;71849;50.096;14.458;2023-11-19T09:40:30;9.13;;;4.90;;
82244;SDS011;71849;50.096;14.458;2023-11-19T09:42:56;10.20;;;5.30;;
82244;SDS011;71849;50.096;14.458;2023-11-19T09:45:22;10.93;;;5.70;;
82244;SDS011;71849;50.096;14.458;2023-11-19T09:47:52;7.53;;;4.25;;
82244;SDS011;71849;50.096;14.458;2023-11-19T09:50:20;9.00;;;5.03;;
82244;SDS011;71849;50.096;14.458;2023-11-19T09:52:46;10.82;;;5.32;;
82244;SDS011;71849;50.096;14.458;2023-11-19T09:55:12;8.88;;;5.07;;
82244;SDS011;71849;50.096;14.458;2023-11-19T09:57:38;8.52;;;4.00;;
82244;SDS011;71849;50.096;14.458;2023-11-19T10:00:05;8.65;;;3.75;;
82244;SDS011;71849;50.096;14.458;2023-11-19T10:02:33;7.32;;;3.78;;
82244;SDS011;71849;50.096;14.458;2023-11-19T10:05:04;7.20;;;3.60;;
82244;SDS011;71849;50.096;14.458;2023-11-19T10:07:31;6.60;;;3.72;;
82244;SDS011;71849;50.096;14.458;2023-11-19T10:10:01;7.90;;;3.83;;
82244;SDS011;71849;50.096;14.458;2023-11-19T10:12:35;7.50;;;4.35;;
82244;SDS011;71849;50.096;14.458;2023-11-19T10:15:01;8.95;;;3.80;;
82244;SDS011;71849;50.096;14.458;2023-11-19T10:17:27;8.18;;;3.40;;
82244;SDS011;71849;50.096;14.458;2023-11-19T10:19:54;8.30;;;3.63;;
82244;SDS011;71849;50.096;14.458;2023-11-19T10:22:22;8.32;;;4.25;;
82244;SDS011;71849;50.096;14.458;2023-11-19T10:24:47;7.35;;;3.30;;
82244;SDS011;71849;50.096;14.458;2023-11-19T10:27:13;6.53;;;2.97;;
82244;SDS011;71849;50.096;14.458;2023-11-19T10:29:39;5.25;;;2.70;;
82244;SDS011;71849;50.096;14.458;2023-11-19T10:32:05;4.88;;;2.10;;
82244;SDS011;71849;50.096;14.458;2023-11-19T10:34:30;4.45;;;2.20;;
82244;SDS011;71849;50.096;14.458;2023-11-19T10:36:56;5.45;;;2.03;;
82244;SDS011;71849;50.096;14.458;2023-11-19T10:39:22;5.97;;;2.20;;
82244;SDS011;71849;50.096;14.458;2023-11-19T10:41:49;5.65;;;2.15;;
82244;SDS011;71849;50.096;14.458;2023-11-19T10:44:33;5.93;;;2.30;;
82244;SDS011;71849;50.096;14.458;2023-11-19T10:47:05;5.93;;;2.53;;
82244;SDS011;71849;50.096;14.458;2023-11-19T10:49:33;8.38;;;3.30;;
82244;SDS011;71849;50.096;14.458;2023-11-19T10:52:00;7.82;;;3.20;;
82244;SDS011;71849;50.096;14.458;2023-11-19T10:54:26;4.47;;;1.90;;
82244;SDS011;71849;50.096;14.458;2023-11-19T10:56:58;3.70;;;1.40;;
82244;SDS011;71849;50.096;14.458;2023-11-19T10:59:27;4.43;;;2.08;;
82244;SDS011;71849;50.096;14.458;2023-11-19T11:01:55;4.20;;;1.70;;
82244;SDS011;71849;50.096;14.458;2023-11-19T11:04:25;4.13;;;1.88;;
82244;SDS011;71849;50.096;14.458;2023-11-19T11:06:56;2.38;;;1.23;;
82244;SDS011;71849;50.096;14.458;2023-11-19T11:09:25;3.05;;;1.30;;
82244;SDS011;71849;50.096;14.458;2023-11-19T11:11:51;3.13;;;1.33;;
82244;SDS011;71849;50.096;14.458;2023-11-19T11:14:18;3.17;;;1.23;;
82244;SDS011;71849;50.096;14.458;2023-11-19T11:16:46;2.13;;;0.95;;
82244;SDS011;71849;50.096;14.458;2023-11-19T11:19:15;1.67;;;0.93;;
82244;SDS011;71849;50.096;14.458;2023-11-19T11:21:44;2.58;;;0.90;;
82244;SDS011;71849;50.096;14.458;2023-11-19T11:32:59;2.50;;;0.98;;
82244;SDS011;71849;50.096;14.458;2023-11-19T11:38:08;2.95;;;0.88;;
82244;SDS011;71849;50.096;14.458;2023-11-19T11:40:34;1.75;;;0.85;;
82244;SDS011;71849;50.096;14.458;2023-11-19T11:43:01;2.00;;;0.90;;
82244;SDS011;71849;50.096;14.458;2023-11-19T11:45:39;4.13;;;1.00;;
82244;SDS011;71849;50.096;14.458;2023-11-19T11:50:36;1.58;;;0.82;;
82244;SDS011;71849;50.096;14.458;2023-11-19T11:53:17;2.72;;;1.08;;
82244;SDS011;71849;50.096;14.458;2023-11-19T11:58:21;3.10;;;1.08;;
82244;SDS011;71849;50.096;14.458;2023-11-19T12:00:50;3.05;;;1.20;;
82244;SDS011;71849;50.096;14.458;2023-11-19T12:03:18;1.83;;;0.95;;
82244;SDS011;71849;50.096;14.458;2023-11-19T12:08:12;2.80;;;1.10;;
82244;SDS011;71849;50.096;14.458;2023-11-19T12:13:16;3.72;;;1.17;;
82244;SDS011;71849;50.096;14.458;2023-11-19T12:18:28;3.08;;;1.30;;
82244;SDS011;71849;50.096;14.458;2023-11-19T12:25:51;4.13;;;1.25;;
82244;SDS011;71849;50.096;14.458;2023-11-19T12:28:17;2.80;;;1.25;;
82244;SDS011;71849;50.096;14.458;2023-11-19T12:30:43;2.78;;;1.25;;
82244;SDS011;71849;50.096;14.458;2023-11-19T12:33:09;2.67;;;1.10;;
82244;SDS011;71849;50.096;14.458;2023-11-19T12:35:45;5.50;;;1.90;;
82244;SDS011;71849;50.096;14.458;2023-11-19T12:38:25;4.63;;;1.73;;
82244;SDS011;71849;50.096;14.458;2023-11-19T12:41:04;2.75;;;1.00;;
82244;SDS011;71849;50.096;14.458;2023-11-19T12:43:33;2.97;;;1.20;;
82244;SDS011;71849;50.096;14.458;2023-11-19T12:45:59;5.80;;;1.83;;
82244;SDS011;71849;50.096;14.458;2023-11-19T12:48:25;6.60;;;1.60;;
82244;SDS011;71849;50.096;14.458;2023-11-19T12:50:51;8.20;;;2.83;;
82244;SDS011;71849;50.096;14.458;2023-11-19T12:53:22;4.65;;;1.70;;
82244;SDS011;71849;50.096;14.458;2023-11-19T12:55:48;2.95;;;1.30;;
82244;SDS011;71849;50.096;14.458;2023-11-19T12:58:33;4.20;;;1.10;;
82244;SDS011;71849;50.096;14.458;2023-11-19T13:01:03;5.22;;;1.38;;
82244;SDS011;71849;50.096;14.458;2023-11-19T13:03:31;4.03;;;1.52;;
82244;SDS011;71849;50.096;14.458;2023-11-19T13:06:16;4.72;;;2.08;;
82244;SDS011;71849;50.096;14.458;2023-11-19T13:08:46;4.88;;;1.52;;
82244;SDS011;71849;50.096;14.458;2023-11-19T13:11:30;4.05;;;1.50;;
82244;SDS011;71849;50.096;14.458;2023-11-19T13:13:57;4.38;;;1.40;;
82244;SDS011;71849;50.096;14.458;2023-11-19T13:16:29;5.68;;;1.98;;
82244;SDS011;71849;50.096;14.458;2023-11-19T13:18:55;3.20;;;1.45;;
82244;SDS011;71849;50.096;14.458;2023-11-19T13:21:20;3.85;;;1.40;;
82244;SDS011;71849;50.096;14.458;2023-11-19T13:23:46;4.80;;;1.35;;
82244;SDS011;71849;50.096;14.458;2023-11-19T13:26:11;4.32;;;1.52;;
82244;SDS011;71849;50.096;14.458;2023-11-19T13:28:37;5.45;;;1.63;;
82244;SDS011;71849;50.096;14.458;2023-11-19T13:31:03;5.80;;;2.28;;
82244;SDS011;71849;50.096;14.458;2023-11-19T13:33:29;4.40;;;1.30;;
82244;SDS011;71849;50.096;14.458;2023-11-19T13:35:55;5.00;;;1.50;;
82244;SDS011;71849;50.096;14.458;2023-11-19T13:38:20;3.90;;;1.83;;
82244;SDS011;71849;50.096;14.458;2023-11-19T13:40:48;4.13;;;1.45;;
82244;SDS011;71849;50.096;14.458;2023-11-19T13:43:14;4.15;;;1.58;;
82244;SDS011;71849;50.096;14.458;2023-11-19T13:45:40;5.60;;;1.73;;
82244;SDS011;71849;50.096;14.458;2023-11-19T13:48:05;4.65;;;1.48;;
82244;SDS011;71849;50.096;14.458;2023-11-19T13:50:31;3.30;;;1.30;;
82244;SDS011;71849;50.096;14.458;2023-11-19T13:52:57;3.38;;;1.45;;
82244;SDS011;71849;50.096;14.458;2023-11-19T13:55:22;6.15;;;1.80;;
82244;SDS011;71849;50.096;14.458;2023-11-19T13:57:48;4.63;;;1.45;;
82244;SDS011;71849;50.096;14.458;2023-11-19T14:00:14;3.83;;;1.40;;
82244;SDS011;71849;50.096;14.458;2023-11-19T14:02:50;4.20;;;1.38;;
82244;SDS011;71849;50.096;14.458;2023-11-19T14:05:15;6.40;;;2.20;;
82244;SDS011;71849;50.096;14.458;2023-11-19T14:07:44;3.80;;;1.40;;
82244;SDS011;71849;50.096;14.458;2023-11-19T14:10:13;3.63;;;1.30;;
82244;SDS011;71849;50.096;14.458;2023-11-19T14:12:39;2.17;;;1.17;;
82244;SDS011;71849;50.096;14.458;2023-11-19T14:15:05;3.40;;;1.25;;
82244;SDS011;71849;50.096;14.458;2023-11-19T14:17:32;5.70;;;1.48;;
82244;SDS011;71849;50.096;14.458;2023-11-19T14:19:59;4.53;;;1.40;;
82244;SDS011;71849;50.096;14.458;2023-11-19T14:22:24;3.35;;;1.38;;
82244;SDS011;71849;50.096;14.458;2023-11-19T14:24:50;4.32;;;1.40;;
82244;SDS011;71849;50.096;14.458;2023-11-19T14:27:15;4.28;;;1.50;;
82244;SDS011;71849;50.096;14.458;2023-11-19T14:29:42;4.88;;;1.92;;
82244;SDS011;71849;50.096;14.458;2023-11-19T14:32:09;4.32;;;1.50;;
82244;SDS011;71849;50.096;14.458;2023-11-19T14:34:35;4.63;;;1.90;;
82244;SDS011;71849;50.096;14.458;2023-11-19T14:37:00;3.70;;;1.35;;
82244;SDS011;71849;50.096;14.458;2023-11-19T14:39:26;4.05;;;1.40;;
82244;SDS011;71849;50.096;14.458;2023-11-19T14:41:51;4.50;;;1.70;;
82244;SDS011;71849;50.096;14.458;2023-11-19T14:44:18;5.05;;;1.50;;
82244;SDS011;71849;50.096;14.458;2023-11-19T14:46:45;5.18;;;2.35;;
82244;SDS011;71849;50.096;14.458;2023-11-19T14:49:10;4.15;;;1.80;;
82244;SDS011;71849;50.096;14.458;2023-11-19T14:51:39;4.20;;;1.63;;
82244;SDS011;71849;50.096;14.458;2023-11-19T14:54:05;4.72;;;1.65;;
82244;SDS011;71849;50.096;14.458;2023-11-19T14:56:30;4.53;;;2.00;;
82244;SDS011;71849;50.096;14.458;2023-11-19T14:58:56;4.97;;;1.73;;
82244;SDS011;71849;50.096;14.458;2023-11-19T15:01:21;3.88;;;1.33;;
82244;SDS011;71849;50.096;14.458;2023-11-19T15:03:47;4.90;;;1.33;;
82244;SDS011;71849;50.096;14.458;2023-11-19T15:06:13;5.97;;;1.77;;